createdAt,value
2022-12-19T00:00:40.611Z,23.20
2022-12-19T00:02:42.837Z,24.05
2022-12-19T00:04:45.758Z,25.30
2022-12-19T00:06:47.888Z,24.85
2022-12-19T00:08:50.832Z,24.10
2022-12-19T00:10:57.635Z,25.30
2022-12-19T00:12:59.811Z,24.00
2022-12-19T00:15:02.036Z,23.08
2022-12-19T00:17:04.188Z,24.48
2022-12-19T00:21:09.040Z,21.90
2022-12-19T00:23:11.199Z,23.73
2022-12-19T00:25:13.331Z,24.88
2022-12-19T00:27:16.633Z,23.88
2022-12-19T00:29:18.885Z,24.38
2022-12-19T00:31:22.026Z,23.40
2022-12-19T00:33:24.214Z,25.48
2022-12-19T00:35:26.358Z,23.60
2022-12-19T00:37:28.502Z,24.80
2022-12-19T00:39:30.699Z,23.38
2022-12-19T00:41:33.850Z,22.60
2022-12-19T00:43:36.255Z,22.23
2022-12-19T00:47:40.499Z,21.17
2022-12-19T00:49:42.611Z,22.25
2022-12-19T00:51:46.375Z,23.13
2022-12-19T00:53:49.652Z,22.27
2022-12-19T00:55:52.069Z,21.95
2022-12-19T00:57:54.169Z,21.25
2022-12-19T00:59:59.619Z,20.20
2022-12-19T01:02:01.830Z,20.95
2022-12-19T01:06:26.304Z,20.63
2022-12-19T01:08:28.680Z,22.65
2022-12-19T01:10:31.602Z,21.52
2022-12-19T01:12:45.910Z,21.80
2022-12-19T01:14:48.204Z,21.63
2022-12-19T01:16:50.734Z,22.65
2022-12-19T01:18:52.922Z,21.35
2022-12-19T01:20:55.027Z,22.80
2022-12-19T01:22:57.212Z,22.45
2022-12-19T01:25:01.943Z,22.83
2022-12-19T01:27:04.227Z,22.50
2022-12-19T01:29:06.429Z,22.35
2022-12-19T01:31:08.592Z,21.70
2022-12-19T01:33:15.101Z,21.85
2022-12-19T01:35:21.378Z,22.58
2022-12-19T01:37:24.004Z,23.38
2022-12-19T01:39:27.551Z,22.75
2022-12-19T01:41:32.549Z,22.00
2022-12-19T01:43:54.676Z,22.02
2022-12-19T01:45:59.426Z,21.50
2022-12-19T01:48:23.129Z,24.27
2022-12-19T01:50:32.898Z,21.45
2022-12-19T01:52:35.037Z,22.00
2022-12-19T01:54:38.318Z,24.05
2022-12-19T01:56:43.128Z,21.08
2022-12-19T01:58:46.594Z,20.88
2022-12-19T02:00:48.758Z,22.73
2022-12-19T02:02:56.904Z,22.42
2022-12-19T02:05:01.499Z,24.15
2022-12-19T02:07:15.321Z,21.92
2022-12-19T02:09:18.411Z,21.77
2022-12-19T02:11:20.550Z,22.35
2022-12-19T02:13:23.582Z,22.60
2022-12-19T02:15:28.567Z,22.83
2022-12-19T02:17:52.528Z,23.00
2022-12-19T02:20:16.584Z,22.45
2022-12-19T02:22:19.150Z,22.23
2022-12-19T02:24:31.840Z,23.65
2022-12-19T02:27:00.224Z,22.88
2022-12-19T02:29:02.325Z,22.98
2022-12-19T02:31:23.384Z,22.75
2022-12-19T02:33:44.021Z,22.50
2022-12-19T02:35:52.246Z,22.65
2022-12-19T02:38:09.377Z,23.05
2022-12-19T02:40:33.829Z,21.58
2022-12-19T02:42:38.372Z,21.52
2022-12-19T02:44:43.427Z,22.10
2022-12-19T02:46:46.701Z,21.48
2022-12-19T02:48:49.329Z,23.17
2022-12-19T02:50:51.541Z,22.17
2022-12-19T02:52:53.659Z,23.65
2022-12-19T02:54:59.633Z,23.25
2022-12-19T02:57:10.071Z,22.40
2022-12-19T02:59:21.110Z,21.80
2022-12-19T03:01:26.033Z,22.88
2022-12-19T03:03:35.995Z,23.10
2022-12-19T03:05:46.020Z,23.92
2022-12-19T03:07:54.709Z,23.92
2022-12-19T03:09:56.824Z,24.10
2022-12-19T03:12:03.632Z,23.02
2022-12-19T03:14:14.882Z,24.05
2022-12-19T03:16:17.099Z,25.10
2022-12-19T03:18:20.162Z,23.60
2022-12-19T03:20:26.925Z,23.35
2022-12-19T03:22:29.099Z,24.27
2022-12-19T03:24:31.283Z,23.77
2022-12-19T03:26:36.466Z,24.70
2022-12-19T03:29:00.209Z,23.95
2022-12-19T03:31:03.954Z,25.23
2022-12-19T03:33:06.575Z,24.27
2022-12-19T03:35:15.596Z,23.80
2022-12-19T03:37:19.819Z,23.50
2022-12-19T03:39:22.724Z,26.17
2022-12-19T03:41:44.510Z,23.67
2022-12-19T03:43:46.976Z,23.67
2022-12-19T03:46:01.848Z,25.98
2022-12-19T03:48:13.925Z,23.48
2022-12-19T03:50:16.461Z,24.85
2022-12-19T03:52:18.606Z,24.02
2022-12-19T03:54:32.045Z,24.80
2022-12-19T03:56:34.273Z,24.35
2022-12-19T03:58:38.936Z,25.42
2022-12-19T04:00:42.213Z,24.65
2022-12-19T04:02:46.350Z,24.40
2022-12-19T04:04:51.370Z,24.70
2022-12-19T04:06:53.870Z,24.40
2022-12-19T04:08:56.557Z,24.80
2022-12-19T04:11:02.221Z,24.67
2022-12-19T04:13:06.862Z,26.40
2022-12-19T04:15:10.119Z,24.33
2022-12-19T04:19:37.473Z,22.23
2022-12-19T04:21:50.227Z,24.35
2022-12-19T04:23:55.826Z,22.55
2022-12-19T04:25:59.815Z,23.65
2022-12-19T04:28:07.953Z,24.55
2022-12-19T04:30:13.133Z,24.20
2022-12-19T04:32:15.524Z,26.98
2022-12-19T04:36:19.757Z,22.23
2022-12-19T04:38:22.176Z,25.38
2022-12-19T04:42:26.350Z,24.43
2022-12-19T04:44:28.509Z,25.48
2022-12-19T04:46:30.700Z,25.08
2022-12-19T04:48:35.298Z,27.80
2022-12-19T04:50:37.520Z,26.17
2022-12-19T04:54:41.898Z,24.77
2022-12-19T04:56:44.086Z,25.52
2022-12-19T04:58:46.302Z,24.90
2022-12-19T05:00:48.450Z,25.10
2022-12-19T05:02:50.883Z,24.48
2022-12-19T05:04:53.280Z,26.00
2022-12-19T05:06:55.409Z,26.77
2022-12-19T05:08:57.545Z,23.95
2022-12-19T05:11:00.838Z,24.33
2022-12-19T05:13:02.942Z,25.90
2022-12-19T05:15:05.881Z,26.52
2022-12-19T05:17:08.043Z,26.60
2022-12-19T05:19:10.781Z,26.08
2022-12-19T05:21:13.097Z,25.33
2022-12-19T05:23:17.403Z,26.42
2022-12-19T05:25:20.102Z,25.45
2022-12-19T05:27:22.558Z,24.92
2022-12-19T05:31:26.791Z,24.37
2022-12-19T05:33:29.024Z,26.77
2022-12-19T05:35:31.164Z,26.27
2022-12-19T05:37:33.292Z,24.83
2022-12-19T05:39:35.556Z,25.55
2022-12-19T05:41:37.688Z,25.63
2022-12-19T05:43:39.824Z,25.70
2022-12-19T05:45:41.998Z,24.85
2022-12-19T05:47:47.268Z,26.23
2022-12-19T05:49:49.470Z,25.27
2022-12-19T05:51:51.612Z,25.25
2022-12-19T05:53:53.747Z,27.00
2022-12-19T05:56:05.882Z,26.67
2022-12-19T05:58:08.029Z,25.95
2022-12-19T06:00:10.458Z,24.13
2022-12-19T06:04:14.786Z,24.33
2022-12-19T06:06:18.243Z,23.80
2022-12-19T06:08:20.385Z,25.20
2022-12-19T06:10:22.543Z,24.00
2022-12-19T06:12:24.710Z,23.52
2022-12-19T06:14:26.863Z,24.35
2022-12-19T06:16:29.142Z,22.92
2022-12-19T06:18:31.414Z,22.92
2022-12-19T06:20:33.686Z,23.85
2022-12-19T06:22:35.927Z,23.45
2022-12-19T06:24:38.122Z,23.05
2022-12-19T06:26:40.353Z,24.02
2022-12-19T06:28:42.486Z,22.70
2022-12-19T06:30:44.685Z,24.50
2022-12-19T06:32:46.819Z,22.60
2022-12-19T06:35:04.120Z,23.77
2022-12-19T06:37:08.315Z,22.50
2022-12-19T06:39:13.279Z,21.98
2022-12-19T06:41:34.691Z,23.33
2022-12-19T06:43:36.824Z,23.38
2022-12-19T06:45:39.006Z,24.08
2022-12-19T06:47:41.174Z,23.50
2022-12-19T06:49:43.327Z,21.27
2022-12-19T06:51:45.636Z,21.58
2022-12-19T06:53:48.276Z,21.75
2022-12-19T06:55:52.817Z,21.67
2022-12-19T06:57:55.304Z,20.83
2022-12-19T07:01:59.654Z,21.30
2022-12-19T07:04:02.196Z,21.45
2022-12-19T07:06:04.828Z,21.35
2022-12-19T07:08:07.176Z,20.30
2022-12-19T07:10:10.391Z,21.65
2022-12-19T07:12:12.545Z,21.27
2022-12-19T07:14:14.843Z,20.88
2022-12-19T07:16:17.035Z,22.10
2022-12-19T07:18:19.189Z,19.05
2022-12-19T07:20:21.969Z,18.75
2022-12-19T07:22:25.673Z,19.35
2022-12-19T07:24:27.854Z,20.10
2022-12-19T07:26:30.016Z,18.52
2022-12-19T07:28:34.154Z,18.75
2022-12-19T07:30:36.703Z,18.25
2022-12-19T07:32:40.072Z,18.67
2022-12-19T07:34:42.243Z,18.38
2022-12-19T07:36:44.376Z,20.35
2022-12-19T07:38:46.586Z,18.30
2022-12-19T07:40:48.779Z,19.05
2022-12-19T07:42:50.964Z,19.00
2022-12-19T07:44:53.270Z,18.02
2022-12-19T07:46:55.384Z,17.02
2022-12-19T07:49:00.682Z,17.80
2022-12-19T07:51:06.514Z,18.33
2022-12-19T07:53:08.663Z,17.50
2022-12-19T07:55:11.078Z,17.55
2022-12-19T07:59:15.381Z,17.42
2022-12-19T08:01:17.667Z,17.92
2022-12-19T08:03:19.883Z,16.33
2022-12-19T08:05:22.251Z,17.55
2022-12-19T08:07:24.418Z,17.52
2022-12-19T08:09:27.813Z,18.05
2022-12-19T08:11:30.119Z,16.67
2022-12-19T08:13:37.960Z,16.40
2022-12-19T08:15:42.008Z,16.13
2022-12-19T08:17:44.266Z,16.92
2022-12-19T08:19:46.508Z,16.58
2022-12-19T08:21:48.773Z,16.67
2022-12-19T08:23:51.028Z,15.75
2022-12-19T08:26:00.448Z,16.17
2022-12-19T08:28:02.631Z,15.20
2022-12-19T08:30:05.274Z,14.60
2022-12-19T08:32:07.569Z,14.98
2022-12-19T08:34:09.732Z,16.23
2022-12-19T08:36:13.113Z,15.93
2022-12-19T08:38:15.369Z,15.18
2022-12-19T08:40:17.567Z,14.18
2022-12-19T08:42:19.763Z,14.05
2022-12-19T08:44:21.994Z,13.15
2022-12-19T08:46:24.355Z,13.95
2022-12-19T08:48:26.784Z,14.00
2022-12-19T08:50:28.976Z,13.65
2022-12-19T08:52:31.124Z,12.15
2022-12-19T08:54:33.311Z,12.48
2022-12-19T08:56:35.572Z,12.93
2022-12-19T08:58:37.749Z,12.05
2022-12-19T09:00:40.083Z,12.65
2022-12-19T09:02:42.416Z,11.77
2022-12-19T09:07:06.763Z,10.38
2022-12-19T09:09:08.901Z,11.23
2022-12-19T09:11:17.969Z,11.13
2022-12-19T09:13:20.529Z,10.60
2022-12-19T09:17:24.870Z,11.38
2022-12-19T09:21:30.540Z,7.93
2022-12-19T09:23:34.196Z,10.27
2022-12-19T09:25:36.953Z,9.90
2022-12-19T09:28:09.322Z,10.07
2022-12-19T09:30:01.523Z,9.50
2022-12-19T09:32:03.765Z,9.30
2022-12-19T09:34:06.706Z,9.45
2022-12-19T09:36:09.891Z,9.18
2022-12-19T09:38:12.662Z,9.20
2022-12-19T09:40:17.851Z,8.65
2022-12-19T09:42:19.981Z,9.30
2022-12-19T09:44:25.323Z,9.07
2022-12-19T09:46:40.450Z,8.63
2022-12-19T09:48:47.994Z,8.90
2022-12-19T09:50:56.154Z,8.57
2022-12-19T09:53:18.870Z,9.00
2022-12-19T09:55:24.352Z,8.32
2022-12-19T09:57:47.776Z,8.90
2022-12-19T09:59:53.752Z,8.60
2022-12-19T10:02:15.726Z,8.75
2022-12-19T10:04:19.693Z,8.88
2022-12-19T10:07:11.876Z,8.55
2022-12-19T10:09:18.925Z,9.23
2022-12-19T10:12:45.572Z,8.73
2022-12-19T10:13:51.266Z,8.45
2022-12-19T10:16:01.781Z,8.70
2022-12-19T10:18:27.170Z,9.50
2022-12-19T10:20:35.400Z,10.25
2022-12-19T10:22:40.386Z,10.63
2022-12-19T10:25:08.541Z,10.55
2022-12-19T10:27:20.981Z,10.40
2022-12-19T10:29:23.274Z,10.43
2022-12-19T10:31:33.416Z,10.50
2022-12-19T10:33:54.888Z,10.65
2022-12-19T10:36:01.897Z,10.68
2022-12-19T10:38:14.409Z,11.25
2022-12-19T10:40:24.474Z,9.95
2022-12-19T10:42:37.817Z,9.57
2022-12-19T10:44:40.823Z,8.68
2022-12-19T10:46:46.224Z,8.18
2022-12-19T10:48:51.905Z,8.38
2022-12-19T10:50:54.267Z,9.93
2022-12-19T10:53:07.261Z,13.48
2022-12-19T10:57:25.325Z,11.38
2022-12-19T10:59:27.603Z,10.73
2022-12-19T11:01:30.982Z,9.38
2022-12-19T11:03:34.652Z,9.77
2022-12-19T11:05:47.617Z,10.45
2022-12-19T11:08:08.876Z,14.73
2022-12-19T11:12:35.536Z,14.77
2022-12-19T11:19:13.522Z,11.50
2022-12-19T11:19:13.561Z,13.93
2022-12-19T11:28:37.029Z,11.03
2022-12-19T11:28:47.449Z,9.77
2022-12-19T11:29:18.492Z,10.73
2022-12-19T11:29:55.169Z,11.13
2022-12-19T11:30:41.630Z,10.43
2022-12-19T11:32:44.570Z,10.70
2022-12-19T11:34:51.277Z,9.95
2022-12-19T11:36:53.446Z,10.38
2022-12-19T11:38:55.763Z,10.20
2022-12-19T11:40:59.918Z,11.30
2022-12-19T11:43:42.615Z,11.40
2022-12-19T11:45:45.997Z,11.23
2022-12-19T11:47:52.223Z,11.05
2022-12-19T11:50:15.419Z,10.50
2022-12-19T11:53:02.458Z,11.23
2022-12-19T11:54:39.739Z,10.98
2022-12-19T11:56:41.970Z,11.50
2022-12-19T11:58:48.113Z,11.13
2022-12-19T12:00:54.987Z,10.52
2022-12-19T12:03:12.358Z,11.65
2022-12-19T12:05:23.780Z,10.77
2022-12-19T12:08:48.569Z,11.25
2022-12-19T12:14:44.587Z,11.90
2022-12-19T12:21:50.124Z,11.60
2022-12-19T12:28:45.267Z,11.77
2022-12-19T12:31:00.651Z,11.27
2022-12-19T12:31:00.652Z,11.35
2022-12-19T12:31:38.742Z,11.57
2022-12-19T12:31:40.237Z,11.25
2022-12-19T12:31:57.749Z,11.60
2022-12-19T12:32:03.363Z,11.85
2022-12-19T12:35:35.105Z,12.52
2022-12-19T12:40:38.411Z,12.57
2022-12-19T12:42:49.284Z,11.55
2022-12-19T12:44:53.598Z,12.93
2022-12-19T12:47:03.299Z,12.55
2022-12-19T12:49:07.013Z,11.90
2022-12-19T12:51:10.185Z,12.85
2022-12-19T12:53:13.998Z,12.55
2022-12-19T12:55:18.682Z,12.07
2022-12-19T12:57:41.105Z,12.10
2022-12-19T12:59:45.837Z,11.93
2022-12-19T13:01:53.012Z,11.25
2022-12-19T13:04:00.132Z,11.27
2022-12-19T13:06:06.953Z,10.75
2022-12-19T13:08:44.669Z,11.93
2022-12-19T13:10:54.805Z,11.35
2022-12-19T13:13:02.027Z,14.05
2022-12-19T13:15:19.187Z,12.23
2022-12-19T13:17:25.914Z,13.18
2022-12-19T13:19:29.454Z,13.50
2022-12-19T13:21:51.646Z,13.63
2022-12-19T13:24:16.228Z,11.07
2022-12-19T13:26:41.983Z,13.00
2022-12-19T13:28:44.092Z,13.05
2022-12-19T13:31:19.878Z,13.02
2022-12-19T13:33:23.859Z,11.57
2022-12-19T13:36:41.185Z,12.57
2022-12-19T13:40:02.198Z,11.50
2022-12-19T13:40:33.083Z,11.43
2022-12-19T13:43:09.696Z,12.25
2022-12-19T13:45:21.897Z,12.32
2022-12-19T13:47:24.694Z,11.60
2022-12-19T13:49:33.322Z,11.70
2022-12-19T13:51:50.549Z,12.40
2022-12-19T13:53:59.333Z,13.20
2022-12-19T13:56:03.916Z,12.73
2022-12-19T13:58:06.929Z,11.60
2022-12-19T14:00:10.675Z,11.80
2022-12-19T14:02:24.361Z,11.27
2022-12-19T14:04:30.270Z,11.80
2022-12-19T14:06:39.704Z,12.07
2022-12-19T14:08:41.875Z,10.95
2022-12-19T14:11:49.849Z,11.20
2022-12-19T14:13:42.743Z,9.85
2022-12-19T14:15:53.226Z,11.23
2022-12-19T14:17:55.454Z,13.18
2022-12-19T14:22:06.789Z,11.65
2022-12-19T14:22:26.010Z,11.77
2022-12-19T14:24:28.746Z,12.32
2022-12-19T14:28:20.603Z,10.93
2022-12-19T14:28:57.154Z,11.32
2022-12-19T14:31:03.322Z,11.95
2022-12-19T14:33:47.019Z,12.43
2022-12-19T14:36:10.603Z,12.18
2022-12-19T14:39:19.734Z,12.82
2022-12-19T14:40:25.058Z,13.88
2022-12-19T14:44:00.527Z,13.20
2022-12-19T14:52:35.006Z,13.77
2022-12-19T14:54:16.121Z,13.75
2022-12-19T14:54:21.864Z,15.07
2022-12-19T14:54:29.353Z,13.50
2022-12-19T14:56:16.426Z,16.05
2022-12-19T14:58:52.224Z,15.40
2022-12-19T15:00:50.861Z,15.63
2022-12-19T15:02:51.261Z,15.38
2022-12-19T15:05:12.263Z,14.63
2022-12-19T15:07:19.661Z,16.17
2022-12-19T15:11:09.506Z,16.92
2022-12-19T15:14:50.493Z,17.15
2022-12-19T15:14:56.589Z,17.83
2022-12-19T15:17:05.396Z,18.70
2022-12-19T15:19:12.555Z,20.52
2022-12-19T15:21:15.311Z,22.15
2022-12-19T15:23:25.842Z,21.80
2022-12-19T15:26:02.314Z,22.65
2022-12-19T15:27:50.220Z,21.45
2022-12-19T15:29:52.697Z,21.77
2022-12-19T15:31:55.001Z,19.85
2022-12-19T15:34:32.933Z,18.08
2022-12-19T15:36:19.670Z,19.23
2022-12-19T15:38:21.824Z,19.38
2022-12-19T15:40:23.992Z,19.42
2022-12-19T15:42:27.763Z,20.80
2022-12-19T15:44:29.917Z,20.27
2022-12-19T15:46:32.339Z,19.30
2022-12-19T15:48:38.114Z,18.98
2022-12-19T15:50:40.406Z,21.85
2022-12-19T15:52:42.619Z,20.13
2022-12-19T15:54:50.286Z,20.88
2022-12-19T15:56:54.425Z,20.60
2022-12-19T15:58:58.325Z,24.48
2022-12-19T16:01:02.279Z,22.92
2022-12-19T16:05:29.178Z,20.88
2022-12-19T16:07:31.691Z,20.52
2022-12-19T16:09:33.883Z,21.05
2022-12-19T16:13:38.668Z,21.10
2022-12-19T16:15:41.023Z,21.10
2022-12-19T16:17:43.288Z,21.75
2022-12-19T16:19:45.510Z,24.75
2022-12-19T16:21:47.644Z,21.50
2022-12-19T16:23:49.838Z,19.88
2022-12-19T16:25:52.127Z,20.23
2022-12-19T16:27:55.892Z,20.23
2022-12-19T16:30:00.208Z,20.27
2022-12-19T16:32:03.592Z,19.40
2022-12-19T16:34:14.595Z,19.95
2022-12-19T16:36:16.802Z,21.88
2022-12-19T16:38:19.883Z,22.23
2022-12-19T16:40:23.294Z,21.65
2022-12-19T16:42:26.041Z,21.60
2022-12-19T16:44:31.671Z,21.55
2022-12-19T16:46:35.093Z,21.48
2022-12-19T16:48:38.415Z,19.02
2022-12-19T16:50:40.579Z,21.00
2022-12-19T16:52:42.986Z,21.80
2022-12-19T16:54:45.136Z,20.85
2022-12-19T16:56:49.183Z,21.75
2022-12-19T16:58:52.090Z,21.23
2022-12-19T17:00:55.306Z,21.70
2022-12-19T17:03:09.080Z,21.75
2022-12-19T17:05:23.519Z,23.55
2022-12-19T17:07:25.714Z,23.33
2022-12-19T17:09:27.875Z,23.60
2022-12-19T17:11:30.719Z,26.27
2022-12-19T17:13:33.638Z,23.75
2022-12-19T17:15:36.811Z,25.25
2022-12-19T17:17:39.275Z,25.00
2022-12-19T17:19:42.094Z,26.10
2022-12-19T17:21:44.628Z,26.20
2022-12-19T17:25:49.021Z,24.40
2022-12-19T17:27:51.401Z,25.55
2022-12-19T17:29:53.564Z,24.45
2022-12-19T17:31:55.847Z,23.17
2022-12-19T17:33:58.534Z,25.13
2022-12-19T17:36:01.760Z,23.45
2022-12-19T17:38:05.258Z,21.88
2022-12-19T17:40:23.839Z,21.13
2022-12-19T17:42:27.923Z,22.38
2022-12-19T17:44:32.983Z,21.02
2022-12-19T17:46:37.113Z,20.10
2022-12-19T17:48:39.257Z,20.50
2022-12-19T17:50:42.090Z,21.83
2022-12-19T17:52:44.721Z,20.98
2022-12-19T17:54:47.017Z,20.80
2022-12-19T17:56:49.379Z,21.38
2022-12-19T17:58:51.591Z,20.80
2022-12-19T18:00:54.085Z,18.80
2022-12-19T18:02:56.820Z,19.60
2022-12-19T18:04:59.019Z,17.67
2022-12-19T18:07:02.575Z,18.40
2022-12-19T18:09:04.901Z,17.40
2022-12-19T18:11:11.671Z,18.05
2022-12-19T18:13:13.809Z,18.25
2022-12-19T18:15:16.044Z,16.88
2022-12-19T18:17:23.314Z,17.42
2022-12-19T18:19:25.873Z,16.55
2022-12-19T18:23:33.227Z,16.20
2022-12-19T18:25:35.833Z,17.52
2022-12-19T18:29:40.038Z,15.80
2022-12-19T18:31:48.343Z,16.23
2022-12-19T18:33:53.189Z,17.30
2022-12-19T18:35:55.524Z,19.20
2022-12-19T18:37:59.670Z,17.83
2022-12-19T18:40:01.788Z,17.02
2022-12-19T18:42:10.625Z,15.82
2022-12-19T18:44:12.832Z,15.30
2022-12-19T18:46:16.281Z,13.88
2022-12-19T18:48:28.988Z,12.52
2022-12-19T18:50:31.137Z,11.27
2022-12-19T18:52:33.429Z,11.35
2022-12-19T18:54:35.607Z,10.65
2022-12-19T18:56:37.756Z,10.45
2022-12-19T18:58:40.103Z,13.55
2022-12-19T19:00:42.276Z,16.05
2022-12-19T19:02:49.482Z,15.13
2022-12-19T19:04:51.840Z,13.43
2022-12-19T19:06:55.435Z,12.27
2022-12-19T19:08:58.556Z,12.23
2022-12-19T19:11:00.785Z,11.10
2022-12-19T19:13:09.798Z,9.73
2022-12-19T19:15:12.333Z,10.68
2022-12-19T19:17:27.459Z,9.43
2022-12-19T19:19:29.688Z,10.05
2022-12-19T19:21:34.188Z,9.85
2022-12-19T19:23:38.454Z,9.13
2022-12-19T19:25:41.095Z,8.98
2022-12-19T19:29:45.350Z,8.77
2022-12-19T19:31:48.702Z,8.93
2022-12-19T19:33:53.395Z,8.60
2022-12-19T19:35:58.517Z,8.15
2022-12-19T19:38:02.040Z,8.85
2022-12-19T19:40:04.328Z,9.88
2022-12-19T19:42:06.526Z,10.23
2022-12-19T19:44:08.735Z,9.15
2022-12-19T19:46:11.019Z,8.80
2022-12-19T19:48:13.279Z,9.10
2022-12-19T19:50:15.451Z,9.13
2022-12-19T19:52:17.558Z,8.32
2022-12-19T19:54:19.775Z,8.82
2022-12-19T19:56:21.970Z,7.78
2022-12-19T19:58:24.720Z,8.00
2022-12-19T20:00:26.977Z,9.05
2022-12-19T20:02:29.432Z,8.30
2022-12-19T20:06:33.970Z,9.47
2022-12-19T20:08:39.671Z,10.65
2022-12-19T20:10:42.839Z,9.18
2022-12-19T20:12:45.026Z,10.00
2022-12-19T20:14:47.538Z,10.23
2022-12-19T20:18:53.262Z,10.93
2022-12-19T20:20:55.481Z,10.45
2022-12-19T20:22:57.649Z,10.75
2022-12-19T20:24:59.957Z,9.57
2022-12-19T20:27:02.160Z,9.20
2022-12-19T20:29:06.461Z,8.98
2022-12-19T20:31:08.718Z,10.07
2022-12-19T20:33:11.122Z,10.07
2022-12-19T20:35:15.058Z,9.23
2022-12-19T20:37:17.353Z,9.48
2022-12-19T20:39:22.118Z,10.25
2022-12-19T20:41:24.334Z,10.93
2022-12-19T20:43:26.655Z,11.43
2022-12-19T20:45:28.850Z,10.70
2022-12-19T20:47:30.991Z,11.32
2022-12-19T20:49:33.182Z,11.27
2022-12-19T20:51:35.383Z,11.43
2022-12-19T20:53:38.389Z,12.52
2022-12-19T20:55:40.817Z,13.50
2022-12-19T20:57:43.002Z,13.02
2022-12-19T20:59:45.169Z,13.85
2022-12-19T21:01:47.531Z,14.18
2022-12-19T21:03:50.406Z,12.98
2022-12-19T21:05:55.938Z,11.90
2022-12-19T21:07:58.122Z,11.57
2022-12-19T21:10:00.296Z,12.00
2022-12-19T21:12:02.435Z,13.70
2022-12-19T21:14:05.984Z,15.93
2022-12-19T21:16:09.914Z,14.00
2022-12-19T21:18:12.265Z,16.38
2022-12-19T21:20:14.958Z,18.15
2022-12-19T21:22:19.117Z,20.85
2022-12-19T21:24:21.622Z,25.02
2022-12-19T21:26:24.589Z,22.23
2022-12-19T21:28:26.827Z,25.00
2022-12-19T21:30:28.980Z,21.25
2022-12-19T21:32:31.104Z,20.65
2022-12-19T21:34:33.277Z,19.38
2022-12-19T21:36:35.417Z,19.27
2022-12-19T21:38:38.130Z,19.00
2022-12-19T21:40:40.294Z,19.98
2022-12-19T21:42:42.748Z,17.63
2022-12-19T21:44:44.910Z,18.17
2022-12-19T21:46:47.123Z,19.08
2022-12-19T21:48:50.168Z,18.45
2022-12-19T21:50:56.314Z,19.10
2022-12-19T21:52:59.225Z,19.35
2022-12-19T21:55:01.339Z,18.88
2022-12-19T21:57:03.624Z,17.38
2022-12-19T21:59:12.451Z,16.63
2022-12-19T22:01:15.701Z,18.38
2022-12-19T22:03:18.130Z,18.70
2022-12-19T22:05:20.382Z,17.77
2022-12-19T22:07:22.536Z,17.27
2022-12-19T22:09:24.738Z,17.60
2022-12-19T22:11:27.398Z,17.98
2022-12-19T22:13:29.985Z,17.52
2022-12-19T22:17:34.362Z,17.05
2022-12-19T22:19:36.554Z,18.20
2022-12-19T22:21:38.711Z,18.95
2022-12-19T22:23:41.088Z,17.90
2022-12-19T22:25:43.217Z,17.70
2022-12-19T22:27:45.377Z,18.27
2022-12-19T22:29:47.643Z,18.77
2022-12-19T22:31:50.194Z,20.40
2022-12-19T22:33:53.866Z,20.25
2022-12-19T22:35:56.105Z,19.73
2022-12-19T22:37:58.427Z,19.80
2022-12-19T22:40:00.690Z,19.33
2022-12-19T22:42:02.877Z,18.80
2022-12-19T22:44:05.394Z,19.08
2022-12-19T22:46:11.505Z,19.27
2022-12-19T22:48:13.759Z,18.20
2022-12-19T22:50:15.912Z,18.45
2022-12-19T22:52:18.055Z,16.58
2022-12-19T22:54:20.249Z,16.75
2022-12-19T22:56:23.767Z,17.17
2022-12-19T22:58:25.897Z,16.45
2022-12-19T23:00:28.181Z,16.90
2022-12-19T23:02:30.506Z,15.82
2022-12-19T23:04:32.755Z,15.48
2022-12-19T23:06:35.779Z,16.40
2022-12-19T23:08:37.966Z,14.25
2022-12-19T23:10:40.159Z,14.13
2022-12-19T23:12:42.291Z,13.32
2022-12-19T23:14:44.465Z,13.32
2022-12-19T23:16:46.979Z,13.38
2022-12-19T23:21:02.404Z,12.13
2022-12-19T23:23:05.295Z,13.18
2022-12-19T23:25:07.861Z,12.13
2022-12-19T23:29:13.796Z,11.32
2022-12-19T23:31:15.969Z,11.98
2022-12-19T23:33:18.301Z,12.20
2022-12-19T23:35:20.432Z,11.05
2022-12-19T23:37:22.569Z,11.10
2022-12-19T23:39:24.726Z,11.05
2022-12-19T23:41:26.880Z,11.82
2022-12-19T23:43:29.593Z,11.75
2022-12-19T23:45:31.981Z,11.82
2022-12-19T23:47:34.097Z,12.60
2022-12-19T23:49:36.283Z,12.00
2022-12-19T23:51:38.470Z,11.63
2022-12-19T23:53:40.673Z,11.95
2022-12-19T23:55:42.849Z,13.15
2022-12-19T23:57:44.988Z,11.65
2022-12-19T23:59:47.133Z,12.05
